createdAt,value
2023-03-18T00:02:09.146Z,4.80
2023-03-18T00:04:35.729Z,5.00
2023-03-18T00:07:02.266Z,5.10
2023-03-18T00:09:28.953Z,4.90
2023-03-18T00:11:55.502Z,4.90
2023-03-18T00:14:22.042Z,4.60
2023-03-18T00:16:48.605Z,4.40
2023-03-18T00:19:15.180Z,3.90
2023-03-18T00:21:41.789Z,4.30
2023-03-18T00:24:08.418Z,4.10
2023-03-18T00:26:35.042Z,4.40
2023-03-18T00:29:01.606Z,4.30
2023-03-18T00:31:28.191Z,4.40
2023-03-18T00:33:54.812Z,3.90
2023-03-18T00:36:21.408Z,4.20
2023-03-18T00:38:48.003Z,4.30
2023-03-18T00:41:14.567Z,4.50
2023-03-18T00:43:41.114Z,4.50
2023-03-18T00:46:07.672Z,3.70
2023-03-18T00:48:34.215Z,3.50
2023-03-18T00:51:00.813Z,3.30
2023-03-18T00:53:27.398Z,3.70
2023-03-18T00:55:53.969Z,4.00
2023-03-18T00:58:20.507Z,3.80
2023-03-18T01:00:47.136Z,3.60
2023-03-18T01:03:13.751Z,3.70
2023-03-18T01:05:40.323Z,4.00
2023-03-18T01:08:06.966Z,3.90
2023-03-18T01:10:33.726Z,3.80
2023-03-18T01:13:00.516Z,3.90
2023-03-18T01:15:27.080Z,3.90
2023-03-18T01:17:53.633Z,4.00
2023-03-18T01:20:20.221Z,4.10
2023-03-18T01:22:46.767Z,4.10
2023-03-18T01:25:13.342Z,4.20
2023-03-18T01:27:39.932Z,4.20
2023-03-18T01:30:06.561Z,4.10
2023-03-18T01:32:33.192Z,4.20
2023-03-18T01:34:59.827Z,4.20
2023-03-18T01:37:26.387Z,4.20
2023-03-18T01:39:52.970Z,4.20
2023-03-18T01:42:19.504Z,4.20
2023-03-18T01:44:46.149Z,4.30
2023-03-18T01:47:12.722Z,4.20
2023-03-18T01:49:39.282Z,4.30
2023-03-18T01:52:05.849Z,4.30
2023-03-18T01:54:32.409Z,4.20
2023-03-18T01:56:58.970Z,4.20
2023-03-18T01:59:25.540Z,4.20
2023-03-18T02:01:52.100Z,4.20
2023-03-18T02:04:18.654Z,4.20
2023-03-18T02:06:45.237Z,4.20
2023-03-18T02:09:11.820Z,4.00
2023-03-18T02:11:38.410Z,3.70
2023-03-18T02:14:05.088Z,3.90
2023-03-18T02:16:31.670Z,4.00
2023-03-18T02:18:58.238Z,4.00
2023-03-18T02:21:24.931Z,3.90
2023-03-18T02:23:51.519Z,3.30
2023-03-18T02:26:18.185Z,3.50
2023-03-18T02:28:44.760Z,3.10
2023-03-18T02:31:11.388Z,3.40
2023-03-18T02:33:37.968Z,3.50
2023-03-18T02:36:04.525Z,3.60
2023-03-18T02:38:31.097Z,3.40
2023-03-18T02:40:57.656Z,2.80
2023-03-18T02:43:24.283Z,3.10
2023-03-18T02:45:50.911Z,2.70
2023-03-18T02:48:17.569Z,2.80
2023-03-18T02:50:44.117Z,3.10
2023-03-18T02:53:10.806Z,3.20
2023-03-18T02:55:37.436Z,2.40
2023-03-18T02:58:04.042Z,2.60
2023-03-18T03:00:30.881Z,2.70
2023-03-18T03:02:57.682Z,2.80
2023-03-18T03:05:24.281Z,2.80
2023-03-18T03:07:50.834Z,2.90
2023-03-18T03:10:17.382Z,2.90
2023-03-18T03:12:43.952Z,3.10
2023-03-18T03:15:10.505Z,3.40
2023-03-18T03:17:37.054Z,3.40
2023-03-18T03:20:03.634Z,3.50
2023-03-18T03:22:30.212Z,3.50
2023-03-18T03:24:56.807Z,3.50
2023-03-18T03:27:23.410Z,3.50
2023-03-18T03:29:50.085Z,3.50
2023-03-18T03:32:16.638Z,3.40
2023-03-18T03:34:43.214Z,3.50
2023-03-18T03:37:09.810Z,3.40
2023-03-18T03:39:36.356Z,3.50
2023-03-18T03:42:03.007Z,3.50
2023-03-18T03:44:29.550Z,3.40
2023-03-18T03:46:56.295Z,3.40
2023-03-18T03:49:22.900Z,3.50
2023-03-18T03:51:49.513Z,3.50
2023-03-18T03:54:16.099Z,3.50
2023-03-18T03:56:42.675Z,2.90
2023-03-18T03:59:09.247Z,2.80
2023-03-18T04:01:35.812Z,3.00
2023-03-18T04:04:02.366Z,3.10
2023-03-18T04:06:29.084Z,3.10
2023-03-18T04:08:55.652Z,3.10
2023-03-18T04:11:22.511Z,3.20
2023-03-18T04:13:49.055Z,3.20
2023-03-18T04:16:15.660Z,3.20
2023-03-18T04:18:42.239Z,3.20
2023-03-18T04:21:08.834Z,2.90
2023-03-18T04:23:35.417Z,2.90
2023-03-18T04:26:02.065Z,2.90
2023-03-18T04:28:28.645Z,3.10
2023-03-18T04:30:55.173Z,3.00
2023-03-18T04:33:21.785Z,3.00
2023-03-18T04:35:48.363Z,3.00
2023-03-18T04:38:15.017Z,3.00
2023-03-18T04:40:41.618Z,2.90
2023-03-18T04:43:08.159Z,3.00
2023-03-18T04:45:34.791Z,3.10
2023-03-18T04:48:01.344Z,3.10
2023-03-18T04:50:27.928Z,3.10
2023-03-18T04:52:54.478Z,2.60
2023-03-18T04:55:21.062Z,2.20
2023-03-18T04:57:47.708Z,2.20
2023-03-18T05:00:14.261Z,2.40
2023-03-18T05:02:40.796Z,2.60
2023-03-18T05:05:07.346Z,2.70
2023-03-18T05:07:33.931Z,2.80
2023-03-18T05:10:00.527Z,2.80
2023-03-18T05:12:27.130Z,2.70
2023-03-18T05:14:53.664Z,2.50
2023-03-18T05:17:20.246Z,1.60
2023-03-18T05:19:46.804Z,1.50
2023-03-18T05:22:13.413Z,1.70
2023-03-18T05:24:39.994Z,1.70
2023-03-18T05:27:06.608Z,2.20
2023-03-18T05:29:33.253Z,2.50
2023-03-18T05:31:59.832Z,2.80
2023-03-18T05:34:26.445Z,2.50
2023-03-18T05:36:53.045Z,2.60
2023-03-18T05:39:19.620Z,2.80
2023-03-18T05:41:46.161Z,2.90
2023-03-18T05:44:12.694Z,3.00
2023-03-18T05:46:39.248Z,3.10
2023-03-18T05:49:05.797Z,3.30
2023-03-18T05:51:32.451Z,3.20
2023-03-18T05:53:58.995Z,2.80
2023-03-18T05:56:25.565Z,2.20
2023-03-18T05:58:52.132Z,2.00
2023-03-18T06:01:18.674Z,2.30
2023-03-18T06:03:45.345Z,2.30
2023-03-18T06:06:13.835Z,2.40
2023-03-18T06:08:40.395Z,2.70
2023-03-18T06:11:07.003Z,3.20
2023-03-18T06:13:33.558Z,3.50
2023-03-18T06:16:00.286Z,3.80
2023-03-18T06:18:26.872Z,4.00
2023-03-18T06:20:53.454Z,4.20
2023-03-18T06:23:20.019Z,4.40
2023-03-18T06:25:46.640Z,4.50
2023-03-18T06:28:13.188Z,4.60
2023-03-18T06:30:39.836Z,4.70
2023-03-18T06:33:06.432Z,4.80
2023-03-18T06:35:33.271Z,4.90
2023-03-18T06:38:00.096Z,5.10
2023-03-18T06:40:26.680Z,4.90
2023-03-18T06:42:53.246Z,5.10
2023-03-18T06:45:19.965Z,5.30
2023-03-18T06:47:46.534Z,5.30
2023-03-18T06:50:13.114Z,5.20
2023-03-18T06:52:39.636Z,5.40
2023-03-18T06:55:06.205Z,5.50
2023-03-18T06:57:32.831Z,5.30
2023-03-18T06:59:59.398Z,5.60
2023-03-18T07:02:25.952Z,5.60
2023-03-18T07:04:52.548Z,5.80
2023-03-18T07:07:19.106Z,5.70
2023-03-18T07:09:46.157Z,5.70
2023-03-18T07:12:12.792Z,5.80
2023-03-18T07:14:39.351Z,5.90
2023-03-18T07:17:05.905Z,6.20
2023-03-18T07:19:32.459Z,6.30
2023-03-18T07:21:59.007Z,5.60
2023-03-18T07:24:25.590Z,5.90
2023-03-18T07:26:52.141Z,6.50
2023-03-18T07:29:18.716Z,6.60
2023-03-18T07:31:45.258Z,6.60
2023-03-18T07:34:11.817Z,6.80
2023-03-18T07:36:38.400Z,6.80
2023-03-18T07:39:05.001Z,6.60
2023-03-18T07:41:35.442Z,6.50
2023-03-18T07:44:03.153Z,6.30
2023-03-18T07:46:29.779Z,6.50
2023-03-18T07:48:56.409Z,6.80
2023-03-18T07:51:23.122Z,6.70
2023-03-18T07:53:49.710Z,6.90
2023-03-18T07:56:16.278Z,7.10
2023-03-18T07:58:42.816Z,7.50
2023-03-18T08:01:09.376Z,7.30
2023-03-18T08:03:35.961Z,6.90
2023-03-18T08:06:02.565Z,7.20
2023-03-18T08:08:29.121Z,7.50
2023-03-18T08:10:55.702Z,7.60
2023-03-18T08:13:22.691Z,8.00
2023-03-18T08:15:49.267Z,8.30
2023-03-18T08:18:15.852Z,8.50
2023-03-18T08:20:42.385Z,8.60
2023-03-18T08:23:08.919Z,8.50
2023-03-18T08:25:35.768Z,8.10
2023-03-18T08:28:02.434Z,8.40
2023-03-18T08:30:29.057Z,8.70
2023-03-18T08:32:57.452Z,8.40
2023-03-18T08:35:24.053Z,8.90
2023-03-18T08:37:50.625Z,9.40
2023-03-18T08:40:17.209Z,9.40
2023-03-18T08:42:43.767Z,10.00
2023-03-18T08:45:10.331Z,10.30
2023-03-18T08:47:36.909Z,10.40
2023-03-18T08:50:03.509Z,10.80
2023-03-18T08:52:30.104Z,10.80
2023-03-18T08:54:56.642Z,10.80
2023-03-18T08:57:23.250Z,10.90
2023-03-18T08:59:49.841Z,11.10
2023-03-18T09:02:16.530Z,10.70
2023-03-18T09:04:43.101Z,10.50
2023-03-18T09:07:09.659Z,10.60
2023-03-18T09:09:43.622Z,10.80
2023-03-18T09:12:10.849Z,11.10
2023-03-18T09:14:37.431Z,11.50
2023-03-18T09:17:04.096Z,11.70
2023-03-18T09:19:30.702Z,11.90
2023-03-18T09:21:57.278Z,12.40
2023-03-18T09:24:23.882Z,11.80
2023-03-18T09:26:50.453Z,11.70
2023-03-18T09:29:16.999Z,11.80
2023-03-18T09:31:43.596Z,12.10
2023-03-18T09:34:10.153Z,11.90
2023-03-18T09:36:36.792Z,12.00
2023-03-18T09:39:03.381Z,12.60
2023-03-18T09:41:29.949Z,12.90
2023-03-18T09:43:56.549Z,13.30
2023-03-18T09:46:23.230Z,12.90
2023-03-18T09:48:49.811Z,13.20
2023-03-18T09:51:18.822Z,13.60
2023-03-18T09:53:45.873Z,13.50
2023-03-18T09:56:12.406Z,13.00
2023-03-18T09:58:39.052Z,13.40
2023-03-18T10:01:05.670Z,13.20
2023-03-18T10:03:32.279Z,13.10
2023-03-18T10:05:58.840Z,13.70
2023-03-18T10:08:25.405Z,13.60
2023-03-18T10:10:52.075Z,14.00
2023-03-18T10:13:18.671Z,14.40
2023-03-18T10:15:45.301Z,14.20
2023-03-18T10:18:11.911Z,14.50
2023-03-18T10:20:38.473Z,14.50
2023-03-18T10:23:05.049Z,14.40
2023-03-18T10:25:31.923Z,14.50
2023-03-18T10:27:58.699Z,14.50
2023-03-18T10:30:25.298Z,14.60
2023-03-18T10:32:51.909Z,14.70
2023-03-18T10:35:18.594Z,14.30
2023-03-18T10:37:45.177Z,14.30
2023-03-18T10:40:11.754Z,14.80
2023-03-18T10:42:38.324Z,14.40
2023-03-18T10:45:04.864Z,14.90
2023-03-18T10:47:31.498Z,15.30
2023-03-18T10:49:58.108Z,14.90
2023-03-18T10:52:24.678Z,15.40
2023-03-18T10:54:51.233Z,15.20
2023-03-18T10:57:17.812Z,15.60
2023-03-18T10:59:44.366Z,15.40
2023-03-18T11:02:11.076Z,15.50
2023-03-18T11:04:37.659Z,15.70
2023-03-18T11:07:04.253Z,15.70
2023-03-18T11:09:30.829Z,15.80
2023-03-18T11:11:57.481Z,16.00
2023-03-18T11:14:24.083Z,16.00
2023-03-18T11:16:50.645Z,16.20
2023-03-18T11:19:17.175Z,16.00
2023-03-18T11:21:43.835Z,16.40
2023-03-18T11:24:10.402Z,15.30
2023-03-18T11:26:37.003Z,15.00
2023-03-18T11:29:03.601Z,15.30
2023-03-18T11:31:30.303Z,15.90
2023-03-18T11:33:56.858Z,16.10
2023-03-18T11:36:23.431Z,16.20
2023-03-18T11:38:50.009Z,16.20
2023-03-18T11:41:16.598Z,16.30
2023-03-18T11:43:43.223Z,16.30
2023-03-18T11:46:09.811Z,16.30
2023-03-18T11:48:36.383Z,16.80
2023-03-18T11:51:02.945Z,16.50
2023-03-18T11:53:29.547Z,17.10
2023-03-18T11:55:56.096Z,17.30
2023-03-18T11:58:22.747Z,17.30
2023-03-18T12:00:49.312Z,17.10
2023-03-18T12:03:15.923Z,17.30
2023-03-18T12:05:42.514Z,16.80
2023-03-18T12:08:09.056Z,16.90
2023-03-18T12:10:35.642Z,17.10
2023-03-18T12:13:02.213Z,17.20
2023-03-18T12:15:28.786Z,17.40
2023-03-18T12:17:55.357Z,17.50
2023-03-18T12:20:21.951Z,16.30
2023-03-18T12:22:48.597Z,16.50
2023-03-18T12:25:15.217Z,17.10
2023-03-18T12:27:41.841Z,17.10
2023-03-18T12:30:08.450Z,17.70
2023-03-18T12:32:35.173Z,17.50
2023-03-18T12:35:01.846Z,17.20
2023-03-18T12:37:28.458Z,17.50
2023-03-18T12:39:55.025Z,17.40
2023-03-18T12:42:21.608Z,17.60
2023-03-18T12:44:48.200Z,17.70
2023-03-18T12:47:14.759Z,18.00
2023-03-18T12:49:41.370Z,18.20
2023-03-18T12:52:07.929Z,18.10
2023-03-18T12:54:34.500Z,17.40
2023-03-18T12:57:01.094Z,16.80
2023-03-18T12:59:27.699Z,17.60
2023-03-18T13:01:54.307Z,17.90
2023-03-18T13:04:20.871Z,17.60
2023-03-18T13:06:47.441Z,18.10
2023-03-18T13:09:14.422Z,16.90
2023-03-18T13:11:41.015Z,17.40
2023-03-18T13:14:07.565Z,17.40
2023-03-18T13:16:34.184Z,17.20
2023-03-18T13:19:01.415Z,17.60
2023-03-18T13:21:29.050Z,17.80
2023-03-18T13:23:55.632Z,18.30
2023-03-18T13:26:22.226Z,17.80
2023-03-18T13:28:48.819Z,17.40
2023-03-18T13:31:15.592Z,17.50
2023-03-18T13:33:42.217Z,17.10
2023-03-18T13:36:08.965Z,17.80
2023-03-18T13:38:35.559Z,17.80
2023-03-18T13:41:02.122Z,18.30
2023-03-18T13:43:28.710Z,18.50
2023-03-18T13:45:55.330Z,18.60
2023-03-18T13:48:21.907Z,17.70
2023-03-18T13:50:48.490Z,17.70
2023-03-18T13:53:15.059Z,17.80
2023-03-18T13:55:41.717Z,17.10
2023-03-18T13:58:08.309Z,16.10
2023-03-18T14:00:34.869Z,15.90
2023-03-18T14:03:01.506Z,16.40
2023-03-18T14:05:28.090Z,17.10
2023-03-18T14:07:54.709Z,17.00
2023-03-18T14:10:21.322Z,16.90
2023-03-18T14:12:48.076Z,17.40
2023-03-18T14:15:15.086Z,17.40
2023-03-18T14:17:41.669Z,17.50
2023-03-18T14:20:08.265Z,17.80
2023-03-18T14:22:34.825Z,17.90
2023-03-18T14:25:01.362Z,17.80
2023-03-18T14:27:28.000Z,17.70
2023-03-18T14:29:54.600Z,17.90
2023-03-18T14:32:21.172Z,17.50
2023-03-18T14:34:47.736Z,17.20
2023-03-18T14:37:14.308Z,17.20
2023-03-18T14:39:40.861Z,17.00
2023-03-18T14:42:09.423Z,17.10
2023-03-18T14:44:37.470Z,16.90
2023-03-18T14:47:04.101Z,16.80
2023-03-18T14:49:30.846Z,16.30
2023-03-18T14:51:57.468Z,16.00
2023-03-18T14:54:24.019Z,15.70
2023-03-18T14:56:50.610Z,15.90
2023-03-18T14:59:17.175Z,16.30
2023-03-18T15:01:43.793Z,16.40
2023-03-18T15:04:10.406Z,16.80
2023-03-18T15:06:36.978Z,17.00
2023-03-18T15:09:03.557Z,16.90
2023-03-18T15:11:30.150Z,16.80
2023-03-18T15:13:58.846Z,16.60
2023-03-18T15:16:26.854Z,16.90
2023-03-18T15:18:53.464Z,17.10
2023-03-18T15:21:20.050Z,17.30
2023-03-18T15:23:46.691Z,17.30
2023-03-18T15:26:13.265Z,16.80
2023-03-18T15:28:39.909Z,17.00
2023-03-18T15:31:06.602Z,16.50
2023-03-18T15:33:33.244Z,16.70
2023-03-18T15:35:59.843Z,17.00
2023-03-18T15:38:26.415Z,17.20
2023-03-18T15:40:53.535Z,17.10
2023-03-18T15:43:20.102Z,17.10
2023-03-18T15:45:46.723Z,17.20
2023-03-18T15:48:13.299Z,17.00
2023-03-18T15:50:39.895Z,17.40
2023-03-18T15:53:06.479Z,17.50
2023-03-18T15:55:33.242Z,17.40
2023-03-18T15:57:59.840Z,17.30
2023-03-18T16:00:26.440Z,16.90
2023-03-18T16:02:53.023Z,16.80
2023-03-18T16:05:19.644Z,16.60
2023-03-18T16:07:46.178Z,16.60
2023-03-18T16:10:12.773Z,15.70
2023-03-18T16:12:39.459Z,15.20
2023-03-18T16:15:06.058Z,15.40
2023-03-18T16:17:32.651Z,15.70
2023-03-18T16:19:59.231Z,15.90
2023-03-18T16:22:25.770Z,15.70
2023-03-18T16:24:52.334Z,15.60
2023-03-18T16:27:18.866Z,15.70
2023-03-18T16:29:45.485Z,16.00
2023-03-18T16:32:12.049Z,15.90
2023-03-18T16:34:38.614Z,16.10
2023-03-18T16:37:05.298Z,15.90
2023-03-18T16:39:31.878Z,15.70
2023-03-18T16:41:58.473Z,15.80
2023-03-18T16:44:25.037Z,16.00
2023-03-18T16:46:51.597Z,16.10
2023-03-18T16:49:18.160Z,15.60
2023-03-18T16:51:44.773Z,15.40
2023-03-18T16:54:11.364Z,14.70
2023-03-18T16:56:37.963Z,14.70
2023-03-18T16:59:04.512Z,15.00
2023-03-18T17:01:31.109Z,14.90
2023-03-18T17:03:57.731Z,14.90
2023-03-18T17:06:24.566Z,14.90
2023-03-18T17:08:51.144Z,15.10
2023-03-18T17:11:17.741Z,15.20
2023-03-18T17:13:44.294Z,15.20
2023-03-18T17:16:10.830Z,15.10
2023-03-18T17:18:37.390Z,15.00
2023-03-18T17:21:04.178Z,14.90
2023-03-18T17:23:30.804Z,14.60
2023-03-18T17:25:57.377Z,14.30
2023-03-18T17:28:24.100Z,14.20
2023-03-18T17:30:50.747Z,13.70
2023-03-18T17:33:17.380Z,13.50
2023-03-18T17:35:43.991Z,13.50
2023-03-18T17:38:11.074Z,13.60
2023-03-18T17:40:37.906Z,13.60
2023-03-18T17:43:04.465Z,13.20
2023-03-18T17:45:31.324Z,13.10
2023-03-18T17:47:58.032Z,13.10
2023-03-18T17:50:24.634Z,13.20
2023-03-18T17:52:51.223Z,13.20
2023-03-18T17:55:17.805Z,13.30
2023-03-18T17:57:44.421Z,13.20
2023-03-18T18:00:11.013Z,13.00
2023-03-18T18:02:37.604Z,13.10
2023-03-18T18:05:04.175Z,12.90
2023-03-18T18:07:30.724Z,12.80
2023-03-18T18:09:57.285Z,12.80
2023-03-18T18:12:23.831Z,12.80
2023-03-18T18:14:50.401Z,12.70
2023-03-18T18:17:17.037Z,12.30
2023-03-18T18:19:43.945Z,11.70
2023-03-18T18:22:10.546Z,11.60
2023-03-18T18:24:37.149Z,11.80
2023-03-18T18:27:03.714Z,11.80
2023-03-18T18:29:30.283Z,11.60
2023-03-18T18:31:56.845Z,11.00
2023-03-18T18:34:23.568Z,11.10
2023-03-18T18:36:50.129Z,10.80
2023-03-18T18:39:16.700Z,10.60
2023-03-18T18:41:43.271Z,10.90
2023-03-18T18:44:09.834Z,11.10
2023-03-18T18:46:36.458Z,10.70
2023-03-18T18:49:03.014Z,10.30
2023-03-18T18:51:29.582Z,10.00
2023-03-18T18:53:56.168Z,10.00
2023-03-18T18:56:22.760Z,9.90
2023-03-18T18:58:49.298Z,10.10
2023-03-18T19:01:16.027Z,10.50
2023-03-18T19:03:42.735Z,10.70
2023-03-18T19:06:09.372Z,10.80
2023-03-18T19:08:35.932Z,10.80
2023-03-18T19:11:02.474Z,10.70
2023-03-18T19:13:29.080Z,10.10
2023-03-18T19:15:55.676Z,9.90
2023-03-18T19:18:22.323Z,9.60
2023-03-18T19:20:48.891Z,9.70
2023-03-18T19:23:15.466Z,10.00
2023-03-18T19:25:42.042Z,10.00
2023-03-18T19:28:08.601Z,9.90
2023-03-18T19:30:35.136Z,10.00
2023-03-18T19:33:01.774Z,9.90
2023-03-18T19:35:28.396Z,9.20
2023-03-18T19:37:54.957Z,9.20
2023-03-18T19:40:21.496Z,9.40
2023-03-18T19:42:48.057Z,9.40
2023-03-18T19:45:14.727Z,9.30
2023-03-18T19:47:41.330Z,9.30
2023-03-18T19:50:07.976Z,9.40
2023-03-18T19:52:34.605Z,9.50
2023-03-18T19:55:01.275Z,9.70
2023-03-18T19:57:27.976Z,9.70
2023-03-18T19:59:54.535Z,9.30
2023-03-18T20:02:21.119Z,9.10
2023-03-18T20:04:47.883Z,8.80
2023-03-18T20:07:14.472Z,8.00
2023-03-18T20:09:41.199Z,8.00
2023-03-18T20:12:07.806Z,7.90
2023-03-18T20:14:34.481Z,8.40
2023-03-18T20:17:01.073Z,8.70
2023-03-18T20:19:27.724Z,8.90
2023-03-18T20:21:54.288Z,9.10
2023-03-18T20:24:20.883Z,8.60
2023-03-18T20:26:47.416Z,8.40
2023-03-18T20:29:14.001Z,8.50
2023-03-18T20:31:40.638Z,8.60
2023-03-18T20:34:07.199Z,8.00
2023-03-18T20:36:33.777Z,7.40
2023-03-18T20:39:00.340Z,7.40
2023-03-18T20:41:26.877Z,7.90
2023-03-18T20:43:53.429Z,8.20
2023-03-18T20:46:23.885Z,8.30
2023-03-18T20:48:51.939Z,7.70
2023-03-18T20:51:18.514Z,8.10
2023-03-18T20:53:45.117Z,7.90
2023-03-18T20:56:11.683Z,8.10
2023-03-18T20:58:38.301Z,8.30
2023-03-18T21:01:04.912Z,8.40
2023-03-18T21:03:31.519Z,8.50
2023-03-18T21:05:58.090Z,8.50
2023-03-18T21:08:24.654Z,8.30
2023-03-18T21:10:51.242Z,8.00
2023-03-18T21:13:17.890Z,8.00
2023-03-18T21:15:44.475Z,7.90
2023-03-18T21:18:11.037Z,8.00
2023-03-18T21:20:37.572Z,8.10
2023-03-18T21:23:04.182Z,8.10
2023-03-18T21:25:30.875Z,8.20
2023-03-18T21:27:57.463Z,8.00
2023-03-18T21:30:24.013Z,7.90
2023-03-18T21:32:50.672Z,7.90
2023-03-18T21:35:17.253Z,7.30
2023-03-18T21:37:43.804Z,7.30
2023-03-18T21:40:10.673Z,7.30
2023-03-18T21:42:37.230Z,7.30
2023-03-18T21:45:03.781Z,7.40
2023-03-18T21:47:30.369Z,7.60
2023-03-18T21:49:56.930Z,7.60
2023-03-18T21:52:23.490Z,7.30
2023-03-18T21:54:50.048Z,6.80
2023-03-18T21:57:16.639Z,6.90
2023-03-18T21:59:43.175Z,7.00
2023-03-18T22:02:09.743Z,7.00
2023-03-18T22:04:36.280Z,7.10
2023-03-18T22:07:02.853Z,7.20
2023-03-18T22:09:29.441Z,7.30
2023-03-18T22:11:56.016Z,7.10
2023-03-18T22:14:22.544Z,7.00
2023-03-18T22:16:49.090Z,7.00
2023-03-18T22:19:15.675Z,7.20
2023-03-18T22:21:42.250Z,7.10
2023-03-18T22:24:08.828Z,7.20
2023-03-18T22:26:35.471Z,6.90
2023-03-18T22:29:02.007Z,6.90
2023-03-18T22:31:28.581Z,6.80
2023-03-18T22:33:55.164Z,6.50
2023-03-18T22:36:21.853Z,6.70
2023-03-18T22:38:48.472Z,6.60
2023-03-18T22:41:15.089Z,6.70
2023-03-18T22:43:41.715Z,6.80
2023-03-18T22:46:08.341Z,6.80
2023-03-18T22:48:34.943Z,6.80
2023-03-18T22:51:01.501Z,6.80
2023-03-18T22:53:28.077Z,6.90
2023-03-18T22:55:54.692Z,7.00
2023-03-18T22:58:21.258Z,7.00
2023-03-18T23:00:47.784Z,7.00
2023-03-18T23:03:14.359Z,7.00
2023-03-18T23:05:41.036Z,6.60
2023-03-18T23:08:07.596Z,6.10
2023-03-18T23:10:34.158Z,6.30
2023-03-18T23:13:00.731Z,6.20
2023-03-18T23:15:27.314Z,6.20
2023-03-18T23:17:53.899Z,6.30
2023-03-18T23:20:20.485Z,6.10
2023-03-18T23:22:47.112Z,6.00
2023-03-18T23:25:13.665Z,6.20
2023-03-18T23:27:40.231Z,6.00
2023-03-18T23:30:06.801Z,6.00
2023-03-18T23:32:33.393Z,6.00
2023-03-18T23:35:00.028Z,6.00
2023-03-18T23:37:26.593Z,5.90
2023-03-18T23:39:53.143Z,6.00
2023-03-18T23:42:19.726Z,5.90
2023-03-18T23:44:46.282Z,5.90
2023-03-18T23:47:12.837Z,5.60
2023-03-18T23:49:39.415Z,5.90
2023-03-18T23:52:05.967Z,6.10
2023-03-18T23:54:32.537Z,6.20
2023-03-18T23:56:59.085Z,6.20
2023-03-18T23:59:25.738Z,6.10
